Terminal Aerodrome Forecast
Issued by NWS

Home | Current Version | Previous Version | Graphics & Text | Print | Product List | Glossary On
Versions: 1 2 3 4 5 6 7 8 9 10 11 12 13 14
740
FTUS43 KFGF 250032 AAA
TAFBJI
TAF AMD
KBJI 250032Z 2501/2524 30012KT P6SM -DZ SCT015 BKN025
      TEMPO 2502/2506 4SM -SHRA OVC010
     FM250600 30009KT P6SM -DZ OVC015
     FM251300 31011KT P6SM BKN015
     FM251500 31012G18KT P6SM BKN025=

USA.gov is the U.S. government's official web portal to all federal, state and local government web resources and services.